createdAt,value
2023-07-26T00:00:03.961Z,5.18
2023-07-26T00:02:30.668Z,4.78
2023-07-26T00:04:57.375Z,5.47
2023-07-26T00:07:24.078Z,6.93
2023-07-26T00:09:50.740Z,5.20
2023-07-26T00:12:17.469Z,5.57
2023-07-26T00:14:44.178Z,6.07
2023-07-26T00:17:11.014Z,5.85
2023-07-26T00:19:37.709Z,4.57
2023-07-26T00:22:04.774Z,4.40
2023-07-26T00:24:31.551Z,7.20
2023-07-26T00:26:58.273Z,10.60
2023-07-26T00:29:24.980Z,6.55
2023-07-26T00:31:51.752Z,6.07
2023-07-26T00:34:18.443Z,5.82
2023-07-26T00:36:45.252Z,7.47
2023-07-26T00:39:12.434Z,8.20
2023-07-26T00:41:39.379Z,5.93
2023-07-26T00:44:06.266Z,6.03
2023-07-26T00:46:33.878Z,8.07
2023-07-26T00:49:01.059Z,6.65
2023-07-26T00:51:29.020Z,6.68
2023-07-26T00:53:55.922Z,6.18
2023-07-26T00:56:22.969Z,7.65
2023-07-26T00:58:50.032Z,6.60
2023-07-26T01:01:16.895Z,7.00
2023-07-26T01:03:43.669Z,5.85
2023-07-26T01:06:24.445Z,6.22
2023-07-26T01:09:25.551Z,6.15
2023-07-26T01:12:10.354Z,9.38
2023-07-26T01:14:37.027Z,7.93
2023-07-26T01:17:06.434Z,7.75
2023-07-26T01:19:33.518Z,6.13
2023-07-26T01:22:01.047Z,6.22
2023-07-26T01:24:27.792Z,5.68
2023-07-26T01:26:54.740Z,6.05
2023-07-26T01:29:22.316Z,7.30
2023-07-26T01:31:49.899Z,14.35
2023-07-26T01:34:16.760Z,6.07
2023-07-26T01:36:44.504Z,5.30
2023-07-26T01:39:11.825Z,7.63
2023-07-26T01:41:39.362Z,7.82
2023-07-26T01:44:06.191Z,7.85
2023-07-26T01:46:33.063Z,7.60
2023-07-26T01:48:59.827Z,5.70
2023-07-26T01:51:26.574Z,6.85
2023-07-26T01:53:53.287Z,8.80
2023-07-26T01:56:20.789Z,9.57
2023-07-26T01:58:47.462Z,7.30
2023-07-26T02:01:14.175Z,9.85
2023-07-26T02:03:40.870Z,7.57
2023-07-26T02:06:07.562Z,9.13
2023-07-26T02:08:34.312Z,7.60
2023-07-26T02:11:01.004Z,8.43
2023-07-26T02:13:28.197Z,8.85
2023-07-26T02:15:54.924Z,10.32
2023-07-26T02:18:22.999Z,8.50
2023-07-26T02:20:49.702Z,9.55
2023-07-26T02:23:16.400Z,7.88
2023-07-26T02:25:43.156Z,10.05
2023-07-26T02:28:09.839Z,12.30
2023-07-26T02:30:36.542Z,10.52
2023-07-26T02:33:03.262Z,8.40
2023-07-26T02:35:30.014Z,13.73
2023-07-26T02:37:56.701Z,7.32
2023-07-26T02:40:23.499Z,11.00
2023-07-26T02:42:50.322Z,11.93
2023-07-26T02:45:17.026Z,9.38
2023-07-26T02:47:43.778Z,11.45
2023-07-26T02:50:10.691Z,15.32
2023-07-26T02:52:37.435Z,10.80
2023-07-26T02:55:04.468Z,8.82
2023-07-26T02:57:31.252Z,12.10
2023-07-26T02:59:57.936Z,13.43
2023-07-26T03:02:24.738Z,15.00
2023-07-26T03:04:51.491Z,12.73
2023-07-26T03:07:18.193Z,10.43
2023-07-26T03:09:45.045Z,20.90
2023-07-26T03:12:11.790Z,16.55
2023-07-26T03:14:41.834Z,13.55
2023-07-26T03:17:22.172Z,11.73
2023-07-26T03:19:50.491Z,11.18
2023-07-26T03:22:17.754Z,15.55
2023-07-26T03:24:44.552Z,15.02
2023-07-26T03:27:11.399Z,15.85
2023-07-26T03:29:38.121Z,18.58
2023-07-26T03:32:05.122Z,16.70
2023-07-26T03:34:32.094Z,14.82
2023-07-26T03:36:58.973Z,17.20
2023-07-26T03:39:25.771Z,17.98
2023-07-26T03:41:52.460Z,15.38
2023-07-26T03:44:19.264Z,19.70
2023-07-26T03:46:45.975Z,21.10
2023-07-26T03:49:12.749Z,15.05
2023-07-26T03:51:39.430Z,17.48
2023-07-26T03:54:06.573Z,16.33
2023-07-26T03:56:33.502Z,19.85
2023-07-26T03:59:00.375Z,19.90
2023-07-26T04:01:27.263Z,15.73
2023-07-26T04:03:54.170Z,19.33
2023-07-26T04:06:21.075Z,22.30
2023-07-26T04:08:47.981Z,35.17
2023-07-26T04:11:14.821Z,17.45
2023-07-26T04:13:41.621Z,19.10
2023-07-26T04:16:19.484Z,18.33
2023-07-26T04:18:46.479Z,16.60
2023-07-26T04:21:18.366Z,16.17
2023-07-26T04:23:46.808Z,23.88
2023-07-26T04:26:13.695Z,16.73
2023-07-26T04:28:40.524Z,20.13
2023-07-26T04:31:07.325Z,20.77
2023-07-26T04:33:34.219Z,17.10
2023-07-26T04:36:01.063Z,17.48
2023-07-26T04:38:27.947Z,14.50
2023-07-26T04:40:54.647Z,22.58
2023-07-26T04:43:21.634Z,19.65
2023-07-26T04:45:52.402Z,17.90
2023-07-26T04:48:20.248Z,16.38
2023-07-26T04:50:48.658Z,23.40
2023-07-26T04:53:16.090Z,14.10
2023-07-26T04:55:52.725Z,22.08
2023-07-26T04:58:19.998Z,22.60
2023-07-26T05:00:47.140Z,17.52
2023-07-26T05:03:14.382Z,24.23
2023-07-26T05:05:41.414Z,18.23
2023-07-26T05:08:08.752Z,17.13
2023-07-26T05:10:36.774Z,23.48
2023-07-26T05:13:04.144Z,17.90
2023-07-26T05:15:31.141Z,17.48
2023-07-26T05:17:57.900Z,18.17
2023-07-26T05:20:24.685Z,24.55
2023-07-26T05:22:53.001Z,20.70
2023-07-26T05:25:20.521Z,18.63
2023-07-26T05:27:47.534Z,19.10
2023-07-26T05:30:19.120Z,19.60
2023-07-26T05:32:46.421Z,19.98
2023-07-26T05:35:13.462Z,15.93
2023-07-26T05:37:40.594Z,20.23
2023-07-26T05:40:08.024Z,17.88
2023-07-26T05:42:36.166Z,19.48
2023-07-26T05:45:05.583Z,17.73
2023-07-26T05:47:34.312Z,17.13
2023-07-26T05:50:01.597Z,17.75
2023-07-26T05:52:28.404Z,16.02
2023-07-26T05:54:55.055Z,17.20
2023-07-26T05:57:21.870Z,14.52
2023-07-26T05:59:48.548Z,16.40
2023-07-26T06:02:17.061Z,15.32
2023-07-26T06:04:44.265Z,16.50
2023-07-26T06:07:11.122Z,12.85
2023-07-26T06:09:38.174Z,14.63
2023-07-26T06:12:05.423Z,15.52
2023-07-26T06:14:32.504Z,12.05
2023-07-26T06:16:59.727Z,13.93
2023-07-26T06:19:28.385Z,15.98
2023-07-26T06:21:57.219Z,11.95
2023-07-26T06:24:30.813Z,10.02
2023-07-26T06:26:59.639Z,9.63
2023-07-26T06:29:26.683Z,11.60
2023-07-26T06:31:53.419Z,11.23
2023-07-26T06:34:20.186Z,10.27
2023-07-26T06:36:48.042Z,11.77
2023-07-26T06:39:15.101Z,9.23
2023-07-26T06:41:44.561Z,11.45
2023-07-26T06:44:11.320Z,10.13
2023-07-26T06:46:39.999Z,8.82
2023-07-26T06:49:06.761Z,11.30
2023-07-26T06:51:33.910Z,9.68
2023-07-26T06:54:00.874Z,11.98
2023-07-26T06:56:27.647Z,6.80
2023-07-26T06:58:55.011Z,7.10
2023-07-26T07:01:23.519Z,7.60
2023-07-26T07:03:58.986Z,8.02
2023-07-26T07:06:29.874Z,12.52
2023-07-26T07:08:59.229Z,14.25
2023-07-26T07:11:26.219Z,6.10
2023-07-26T07:13:54.580Z,8.38
2023-07-26T07:16:21.309Z,6.15
2023-07-26T07:18:51.880Z,7.20
2023-07-26T07:21:18.718Z,5.60
2023-07-26T07:23:45.890Z,8.75
2023-07-26T07:26:12.905Z,7.45
2023-07-26T07:28:39.579Z,5.70
2023-07-26T07:31:07.518Z,5.88
2023-07-26T07:33:34.230Z,5.18
2023-07-26T07:36:01.031Z,6.07
2023-07-26T07:38:27.864Z,6.45
2023-07-26T07:40:54.631Z,4.22
2023-07-26T07:43:21.978Z,4.90
2023-07-26T07:45:48.744Z,7.60
2023-07-26T07:48:15.998Z,4.60
2023-07-26T07:50:42.676Z,4.28
2023-07-26T07:53:09.480Z,4.15
2023-07-26T07:55:39.685Z,7.30
2023-07-26T07:58:06.961Z,4.07
2023-07-26T08:00:33.752Z,3.63
2023-07-26T08:03:00.519Z,3.80
2023-07-26T08:05:27.246Z,4.55
2023-07-26T08:07:55.172Z,4.30
2023-07-26T08:10:22.288Z,3.78
2023-07-26T08:12:50.903Z,3.70
2023-07-26T08:15:17.771Z,3.45
2023-07-26T08:17:44.660Z,3.72
2023-07-26T08:20:12.954Z,3.70
2023-07-26T08:22:41.083Z,3.00
2023-07-26T08:25:09.024Z,3.20
2023-07-26T08:27:35.824Z,2.97
2023-07-26T08:30:03.318Z,3.10
2023-07-26T08:32:30.276Z,3.10
2023-07-26T08:34:57.001Z,5.80
2023-07-26T08:37:25.037Z,2.90
2023-07-26T08:39:51.762Z,2.90
2023-07-26T08:42:18.598Z,2.50
2023-07-26T08:44:47.562Z,3.13
2023-07-26T08:47:17.263Z,2.78
2023-07-26T08:49:46.387Z,2.67
2023-07-26T08:52:15.014Z,2.95
2023-07-26T08:54:43.707Z,3.40
2023-07-26T08:57:12.002Z,2.45
2023-07-26T08:59:40.315Z,3.33
2023-07-26T09:02:10.859Z,2.63
2023-07-26T09:07:05.560Z,2.30
2023-07-26T09:09:33.953Z,2.28
2023-07-26T09:12:01.477Z,3.92
2023-07-26T09:14:29.773Z,3.50
2023-07-26T09:16:57.668Z,4.03
2023-07-26T09:19:35.020Z,3.72
2023-07-26T09:22:03.540Z,3.03
2023-07-26T09:24:38.236Z,4.40
2023-07-26T09:27:10.318Z,2.65
2023-07-26T09:29:41.839Z,3.65
2023-07-26T09:32:10.733Z,2.63
2023-07-26T09:34:40.795Z,2.95
2023-07-26T09:37:07.870Z,2.50
2023-07-26T09:39:45.456Z,5.60
2023-07-26T09:42:12.142Z,2.28
2023-07-26T09:44:38.878Z,2.40
2023-07-26T09:47:08.223Z,3.53
2023-07-26T09:49:44.601Z,2.22
2023-07-26T09:52:14.366Z,4.72
2023-07-26T09:54:42.035Z,2.30
2023-07-26T09:57:13.413Z,2.17
2023-07-26T09:59:41.727Z,1.80
2023-07-26T10:02:12.305Z,2.58
2023-07-26T10:05:01.484Z,2.28
2023-07-26T10:07:33.362Z,2.13
2023-07-26T10:10:03.838Z,4.65
2023-07-26T10:12:32.169Z,2.03
2023-07-26T10:14:59.786Z,2.45
2023-07-26T10:17:27.634Z,1.65
2023-07-26T10:19:56.161Z,2.65
2023-07-26T10:22:24.636Z,2.03
2023-07-26T10:24:51.389Z,1.80
2023-07-26T10:27:18.175Z,2.65
2023-07-26T10:29:47.320Z,1.52
2023-07-26T10:32:15.877Z,2.28
2023-07-26T10:34:43.326Z,1.73
2023-07-26T10:37:20.882Z,3.00
2023-07-26T10:39:50.147Z,2.90
2023-07-26T10:42:24.135Z,3.33
2023-07-26T10:44:51.379Z,2.33
2023-07-26T10:47:20.121Z,1.85
2023-07-26T10:49:49.130Z,2.33
2023-07-26T10:52:16.488Z,2.35
2023-07-26T10:54:49.913Z,1.65
2023-07-26T10:57:33.122Z,3.10
2023-07-26T11:00:07.838Z,4.10
2023-07-26T11:02:46.057Z,3.35
2023-07-26T11:05:23.740Z,2.13
2023-07-26T11:07:59.639Z,3.33
2023-07-26T11:10:49.607Z,2.30
2023-07-26T11:13:21.355Z,1.58
2023-07-26T11:16:15.601Z,1.50
2023-07-26T11:18:41.715Z,1.63
2023-07-26T11:21:14.129Z,5.07
2023-07-26T11:23:40.882Z,2.10
2023-07-26T11:26:09.440Z,3.00
2023-07-26T11:28:36.282Z,3.60
2023-07-26T11:31:05.226Z,3.40
2023-07-26T11:33:35.040Z,4.85
2023-07-26T11:36:05.795Z,4.13
2023-07-26T11:38:32.535Z,4.60
2023-07-26T11:41:01.199Z,5.78
2023-07-26T11:43:30.186Z,6.90
2023-07-26T11:45:58.495Z,5.32
2023-07-26T11:48:30.961Z,4.78
2023-07-26T11:51:01.243Z,6.15
2023-07-26T11:53:45.132Z,5.57
2023-07-26T11:56:13.042Z,4.00
2023-07-26T11:58:41.778Z,3.25
2023-07-26T12:01:08.825Z,3.40
2023-07-26T12:03:37.597Z,3.22
2023-07-26T12:06:09.121Z,3.08
2023-07-26T12:08:38.305Z,3.10
2023-07-26T12:11:06.455Z,2.83
2023-07-26T12:13:34.838Z,2.28
2023-07-26T12:16:04.196Z,2.53
2023-07-26T12:18:32.271Z,1.88
2023-07-26T12:21:10.064Z,2.20
2023-07-26T12:24:03.404Z,1.40
2023-07-26T12:26:34.386Z,1.30
2023-07-26T12:29:04.189Z,1.35
2023-07-26T12:31:35.119Z,1.73
2023-07-26T12:34:10.682Z,1.30
2023-07-26T12:36:43.218Z,1.63
2023-07-26T12:39:11.234Z,1.58
2023-07-26T12:41:43.290Z,2.25
2023-07-26T12:44:12.192Z,2.38
2023-07-26T12:47:14.383Z,1.95
2023-07-26T12:49:28.312Z,4.05
2023-07-26T12:51:55.587Z,1.70
2023-07-26T12:54:24.928Z,1.55
2023-07-26T12:56:54.613Z,1.10
2023-07-26T12:59:21.362Z,2.20
2023-07-26T13:01:48.221Z,1.23
2023-07-26T13:04:17.224Z,0.90
2023-07-26T13:06:44.030Z,1.48
2023-07-26T13:09:10.777Z,0.90
2023-07-26T13:11:37.607Z,0.80
2023-07-26T13:14:04.350Z,0.90
2023-07-26T13:16:33.395Z,1.45
2023-07-26T13:19:06.661Z,0.68
2023-07-26T13:21:33.828Z,1.30
2023-07-26T13:24:00.860Z,1.27
2023-07-26T13:26:30.023Z,1.30
2023-07-26T13:28:56.898Z,0.93
2023-07-26T13:31:23.611Z,1.00
2023-07-26T13:33:52.008Z,1.02
2023-07-26T13:36:24.454Z,1.20
2023-07-26T13:38:51.394Z,1.38
2023-07-26T13:41:18.330Z,0.90
2023-07-26T13:43:45.091Z,1.08
2023-07-26T13:48:41.517Z,1.10
2023-07-26T13:51:10.172Z,1.95
2023-07-26T13:53:37.205Z,0.93
2023-07-26T13:56:03.967Z,1.25
2023-07-26T13:58:31.074Z,1.80
2023-07-26T14:00:57.883Z,1.10
2023-07-26T14:03:26.319Z,1.80
2023-07-26T14:05:53.065Z,1.63
2023-07-26T14:08:19.762Z,1.17
2023-07-26T14:10:46.425Z,1.63
2023-07-26T14:13:13.221Z,1.30
2023-07-26T14:15:39.931Z,1.38
2023-07-26T14:18:06.652Z,1.33
2023-07-26T14:20:34.402Z,0.70
2023-07-26T14:23:01.603Z,0.70
2023-07-26T14:25:28.399Z,2.40
2023-07-26T14:27:55.545Z,0.95
2023-07-26T14:30:22.230Z,1.05
2023-07-26T14:32:48.988Z,1.15
2023-07-26T14:35:15.965Z,0.98
2023-07-26T14:37:42.624Z,0.80
2023-07-26T14:40:09.926Z,1.17
2023-07-26T14:42:36.783Z,1.10
2023-07-26T14:45:03.649Z,0.93
2023-07-26T14:47:30.449Z,1.15
2023-07-26T14:50:04.106Z,1.20
2023-07-26T14:52:32.070Z,1.17
2023-07-26T14:54:58.948Z,1.95
2023-07-26T14:57:25.638Z,1.30
2023-07-26T14:59:52.382Z,1.10
2023-07-26T15:02:22.332Z,0.82
2023-07-26T15:04:49.170Z,1.58
2023-07-26T15:07:16.007Z,2.35
2023-07-26T15:09:43.035Z,1.27
2023-07-26T15:12:10.356Z,1.88
2023-07-26T15:14:37.265Z,1.00
2023-07-26T15:17:04.190Z,0.85
2023-07-26T15:19:30.988Z,0.82
2023-07-26T15:21:57.733Z,0.90
2023-07-26T15:24:25.636Z,1.25
2023-07-26T15:26:53.090Z,1.17
2023-07-26T15:29:19.823Z,1.20
2023-07-26T15:31:46.610Z,2.42
2023-07-26T15:34:13.312Z,1.30
2023-07-26T15:36:42.682Z,6.20
2023-07-26T15:39:10.159Z,1.20
2023-07-26T15:42:06.548Z,2.00
2023-07-26T15:47:14.479Z,1.13
2023-07-26T15:52:13.167Z,1.90
2023-07-26T15:54:40.464Z,1.33
2023-07-26T15:57:07.481Z,1.80
2023-07-26T15:59:35.740Z,1.38
2023-07-26T16:02:02.523Z,2.13
2023-07-26T16:04:29.469Z,1.45
2023-07-26T16:09:28.927Z,1.67
2023-07-26T16:21:54.795Z,1.75
2023-07-26T16:24:23.091Z,2.05
2023-07-26T16:26:49.813Z,2.50
2023-07-26T16:29:16.536Z,1.77
2023-07-26T16:31:43.381Z,2.40
2023-07-26T16:34:10.136Z,1.60
2023-07-26T16:36:36.907Z,2.00
2023-07-26T16:39:03.737Z,2.42
2023-07-26T16:41:30.958Z,2.55
2023-07-26T16:43:57.949Z,1.52
2023-07-26T16:46:27.366Z,1.77
2023-07-26T16:49:00.245Z,2.13
2023-07-26T16:51:27.193Z,3.53
2023-07-26T16:53:54.387Z,1.88
2023-07-26T16:56:21.054Z,2.10
2023-07-26T16:58:47.975Z,2.45
2023-07-26T17:01:14.805Z,1.63
2023-07-26T17:03:41.682Z,2.00
2023-07-26T17:06:08.842Z,2.05
2023-07-26T17:08:35.555Z,1.75
2023-07-26T17:11:02.290Z,1.92
2023-07-26T17:13:29.045Z,1.67
2023-07-26T17:15:55.757Z,2.17
2023-07-26T17:18:22.888Z,5.05
2023-07-26T17:20:49.560Z,3.17
2023-07-26T17:23:16.287Z,2.72
2023-07-26T17:25:42.978Z,5.53
2023-07-26T17:28:11.986Z,3.38
2023-07-26T17:30:38.658Z,5.38
2023-07-26T17:33:06.600Z,4.80
2023-07-26T17:35:33.392Z,2.30
2023-07-26T17:38:00.068Z,2.20
2023-07-26T17:40:30.939Z,2.42
2023-07-26T17:42:58.941Z,3.35
2023-07-26T17:45:25.731Z,3.75
2023-07-26T17:47:52.469Z,2.63
2023-07-26T17:50:19.202Z,2.00
2023-07-26T17:52:45.957Z,2.65
2023-07-26T17:55:15.404Z,15.65
2023-07-26T17:57:42.086Z,23.17
2023-07-26T18:00:11.926Z,45.05
2023-07-26T18:02:39.166Z,21.02
2023-07-26T18:05:07.129Z,43.55
2023-07-26T18:07:34.908Z,130.35
2023-07-26T18:10:02.027Z,16.98
2023-07-26T18:12:28.823Z,7.45
2023-07-26T18:14:55.917Z,3.38
2023-07-26T18:17:22.795Z,3.55
2023-07-26T18:19:49.474Z,2.90
2023-07-26T18:22:16.368Z,3.65
2023-07-26T18:24:43.157Z,6.88
2023-07-26T18:27:09.879Z,16.20
2023-07-26T18:29:36.622Z,3.58
2023-07-26T18:32:04.150Z,6.50
2023-07-26T18:34:32.114Z,4.65
2023-07-26T18:36:59.952Z,4.10
2023-07-26T18:39:27.105Z,4.53
2023-07-26T18:41:53.936Z,5.25
2023-07-26T18:44:20.641Z,6.30
2023-07-26T18:46:47.372Z,4.38
2023-07-26T18:49:14.089Z,3.80
2023-07-26T18:51:40.773Z,5.95
2023-07-26T18:54:07.614Z,5.35
2023-07-26T18:56:34.592Z,5.25
2023-07-26T18:59:01.624Z,6.82
2023-07-26T19:01:28.408Z,5.60
2023-07-26T19:03:55.092Z,5.07
2023-07-26T19:06:21.945Z,6.72
2023-07-26T19:08:48.651Z,6.47
2023-07-26T19:11:15.505Z,4.95
2023-07-26T19:13:45.928Z,5.18
2023-07-26T19:16:12.858Z,4.22
2023-07-26T19:18:39.662Z,4.07
2023-07-26T19:21:07.690Z,4.03
2023-07-26T19:23:34.867Z,3.55
2023-07-26T19:26:02.230Z,3.03
2023-07-26T19:28:29.426Z,4.90
2023-07-26T19:30:56.183Z,4.30
2023-07-26T19:33:23.051Z,4.05
2023-07-26T19:35:59.743Z,2.92
2023-07-26T19:38:27.470Z,4.47
2023-07-26T19:41:02.538Z,3.03
2023-07-26T19:43:29.795Z,4.20
2023-07-26T19:45:56.564Z,3.83
2023-07-26T19:48:23.287Z,3.90
2023-07-26T19:50:53.997Z,3.08
2023-07-26T19:53:21.495Z,4.28
2023-07-26T19:55:48.631Z,3.45
2023-07-26T19:58:18.125Z,3.60
2023-07-26T20:00:44.902Z,2.88
2023-07-26T20:03:11.590Z,3.53
2023-07-26T20:05:44.470Z,4.28
2023-07-26T20:08:12.411Z,2.45
2023-07-26T20:10:43.668Z,3.15
2023-07-26T20:13:12.038Z,2.63
2023-07-26T20:15:38.939Z,4.22
2023-07-26T20:18:05.841Z,2.67
2023-07-26T20:20:33.320Z,3.97
2023-07-26T20:23:00.059Z,2.42
2023-07-26T20:25:26.804Z,3.30
2023-07-26T20:27:53.503Z,3.67
2023-07-26T20:30:20.347Z,4.35
2023-07-26T20:32:47.074Z,4.35
2023-07-26T20:35:13.939Z,3.70
2023-07-26T20:37:40.645Z,3.05
2023-07-26T20:40:08.323Z,3.38
2023-07-26T20:42:35.371Z,4.45
2023-07-26T20:45:02.254Z,2.40
2023-07-26T20:47:29.078Z,2.47
2023-07-26T20:49:55.795Z,3.65
2023-07-26T20:52:22.722Z,2.92
2023-07-26T20:54:49.581Z,2.80
2023-07-26T20:57:16.360Z,1.85
2023-07-26T20:59:44.824Z,2.65
2023-07-26T21:02:11.579Z,1.95
2023-07-26T21:04:38.319Z,2.58
2023-07-26T21:07:06.286Z,2.50
2023-07-26T21:09:33.048Z,2.92
2023-07-26T21:11:59.756Z,4.28
2023-07-26T21:14:26.433Z,3.53
2023-07-26T21:16:53.512Z,2.28
2023-07-26T21:19:20.226Z,3.58
2023-07-26T21:21:46.933Z,3.03
2023-07-26T21:24:13.637Z,2.60
2023-07-26T21:26:40.313Z,2.83
2023-07-26T21:29:06.960Z,2.83
2023-07-26T21:31:33.754Z,2.42
2023-07-26T21:34:00.410Z,3.53
2023-07-26T21:36:27.186Z,4.15
2023-07-26T21:38:53.942Z,2.47
2023-07-26T21:41:20.714Z,3.70
2023-07-26T21:43:47.442Z,4.65
2023-07-26T21:46:14.209Z,2.88
2023-07-26T21:48:40.990Z,3.63
2023-07-26T21:51:07.723Z,2.63
2023-07-26T21:53:34.868Z,2.78
2023-07-26T21:56:01.632Z,2.08
2023-07-26T21:58:28.351Z,2.00
2023-07-26T22:00:55.935Z,3.05
2023-07-26T22:03:23.548Z,3.38
2023-07-26T22:05:53.762Z,2.97
2023-07-26T22:08:21.711Z,3.60
2023-07-26T22:10:48.528Z,2.55
2023-07-26T22:13:16.462Z,2.15
2023-07-26T22:15:45.814Z,3.08
2023-07-26T22:18:12.606Z,3.23
2023-07-26T22:20:52.227Z,4.63
2023-07-26T22:23:26.337Z,2.60
2023-07-26T22:26:03.187Z,2.88
2023-07-26T22:28:39.440Z,3.03
2023-07-26T22:31:06.222Z,3.25
2023-07-26T22:33:33.013Z,2.45
2023-07-26T22:36:03.561Z,3.58
2023-07-26T22:38:30.318Z,4.05
2023-07-26T22:40:57.019Z,2.22
2023-07-26T22:43:23.826Z,2.00
2023-07-26T22:45:50.652Z,2.17
2023-07-26T22:48:17.413Z,2.22
2023-07-26T22:50:44.078Z,3.08
2023-07-26T22:53:10.853Z,2.40
2023-07-26T22:55:37.555Z,2.25
2023-07-26T22:58:06.212Z,3.03
2023-07-26T23:00:33.604Z,2.30
2023-07-26T23:03:00.367Z,2.38
2023-07-26T23:05:27.234Z,2.40
2023-07-26T23:07:53.906Z,4.45
2023-07-26T23:10:21.514Z,3.45
2023-07-26T23:12:48.294Z,2.75
2023-07-26T23:15:15.138Z,2.20
2023-07-26T23:17:41.886Z,2.65
2023-07-26T23:20:09.070Z,3.05
2023-07-26T23:22:35.732Z,2.38
2023-07-26T23:25:03.061Z,3.60
2023-07-26T23:27:29.766Z,3.45
2023-07-26T23:29:57.432Z,1.92
2023-07-26T23:32:24.341Z,2.72
2023-07-26T23:34:51.111Z,3.70
2023-07-26T23:37:17.778Z,3.70
2023-07-26T23:39:44.720Z,4.57
2023-07-26T23:42:11.526Z,4.97
2023-07-26T23:44:38.219Z,5.47
2023-07-26T23:47:05.181Z,2.45
2023-07-26T23:49:32.083Z,2.75
2023-07-26T23:51:58.771Z,2.17
2023-07-26T23:54:26.214Z,2.72
2023-07-26T23:56:52.944Z,2.35
2023-07-26T23:59:19.721Z,2.40
